Time;durP1;ratioP1;P1;durP2;ratioP2;P2;SDS_P1;SDS_P2;PMS_P1;PMS_P2;Temp;Humidity;BMP_temperature;BMP_pressure;BME280_temperature;BME280_humidity;BME280_pressure;Samples;Min_cycle;Max_cycle;Signal;HPM_P1;HPM_P2
2022/06/05 00:00:37;;;;;;;9.02;5.07;;;18.50;66.20;;;;;;4985189;28;20450;-79
2022/06/05 00:03:11;;;;;;;5.68;5.10;;;18.40;66.20;;;;;;4950569;28;20073;-79
2022/06/05 00:05:55;;;;;;;5.63;5.05;;;18.40;65.70;;;;;;4981843;28;20557;-79
2022/06/05 00:08:45;;;;;;;5.13;4.65;;;18.20;66.30;;;;;;4978000;28;20398;-80
2022/06/05 00:11:11;;;;;;;6.20;5.68;;;18.10;66.10;;;;;;4992066;28;20022;-80
2022/06/05 00:13:40;;;;;;;6.40;5.80;;;18.00;68.30;;;;;;4952525;28;20076;-79
2022/06/05 00:16:06;;;;;;;6.20;4.82;;;18.00;67.80;;;;;;4992381;28;20535;-79
2022/06/05 00:18:33;;;;;;;4.90;4.47;;;18.00;67.40;;;;;;4961197;28;20038;-79
2022/06/05 00:20:58;;;;;;;5.60;5.15;;;18.00;67.60;;;;;;4950142;28;20126;-79
2022/06/05 00:23:24;;;;;;;5.45;4.88;;;18.00;66.70;;;;;;4968799;28;20397;-80
2022/06/05 00:26:11;;;;;;;6.13;5.53;;;18.00;66.30;;;;;;4964101;28;20042;-80
2022/06/05 00:28:39;;;;;;;7.72;5.80;;;17.90;66.60;;;;;;4988584;28;20084;-80
2022/06/05 00:31:04;;;;;;;10.68;6.38;;;17.70;67.70;;;;;;4974107;28;20037;-81
2022/06/05 00:33:37;;;;;;;5.75;5.28;;;17.60;67.40;;;;;;4992607;28;20106;-81
2022/06/05 00:36:17;;;;;;;5.85;5.35;;;17.50;68.50;;;;;;4966564;28;20033;-80
2022/06/05 00:39:04;;;;;;;5.60;4.78;;;17.50;68.20;;;;;;4983927;28;20039;-81
2022/06/05 00:41:55;;;;;;;5.60;4.75;;;17.50;70.00;;;;;;4976648;28;20045;-81
2022/06/05 00:44:33;;;;;;;5.15;4.25;;;17.50;67.20;;;;;;4989845;28;20117;-81
2022/06/05 00:46:59;;;;;;;5.25;4.75;;;17.60;67.00;;;;;;4960208;28;20026;-80
2022/06/05 00:49:28;;;;;;;5.65;4.97;;;17.60;66.50;;;;;;4983349;28;20041;-80
2022/06/05 00:51:54;;;;;;;5.88;5.40;;;17.50;66.30;;;;;;4991154;28;20387;-79
2022/06/05 00:54:19;;;;;;;6.97;5.75;;;17.30;66.30;;;;;;4958903;28;20041;-80
2022/06/05 00:56:45;;;;;;;5.57;5.18;;;17.20;67.50;;;;;;4962583;28;20087;-80
2022/06/05 00:59:12;;;;;;;6.85;6.15;;;17.10;67.90;;;;;;4957953;28;20066;-80
2022/06/05 01:01:38;;;;;;;6.22;5.72;;;17.10;66.80;;;;;;4970905;28;20556;-79
2022/06/05 01:04:04;;;;;;;6.82;5.22;;;17.00;67.70;;;;;;4959041;28;20034;-79
2022/06/05 01:06:29;;;;;;;6.25;5.65;;;16.90;68.70;;;;;;4961910;28;20030;-80
2022/06/05 01:08:55;;;;;;;6.55;5.93;;;16.90;68.60;;;;;;4987326;28;20034;-80
2022/06/05 01:11:28;;;;;;;6.18;5.57;;;16.80;72.50;;;;;;4959084;28;20121;-79
2022/06/05 01:14:20;;;;;;;6.88;6.13;;;16.70;72.20;;;;;;4985945;28;20038;-79
2022/06/05 01:17:24;;;;;;;5.68;5.28;;;16.70;71.90;;;;;;4973746;28;20035;-79
2022/06/05 01:20:10;;;;;;;7.43;5.85;;;16.70;73.20;;;;;;4895234;29;20086;-79
2022/06/05 01:23:02;;;;;;;6.63;5.93;;;16.60;69.40;;;;;;4980129;28;20057;-79
2022/06/05 01:25:43;;;;;;;6.78;6.00;;;16.60;70.30;;;;;;4958067;28;20044;-79
2022/06/05 01:28:11;;;;;;;6.93;6.30;;;16.50;72.30;;;;;;4974090;28;20022;-79
2022/06/05 01:30:53;;;;;;;7.60;6.90;;;16.50;70.70;;;;;;4955002;28;20085;-79
2022/06/05 01:33:24;;;;;;;7.47;6.47;;;16.40;70.60;;;;;;4997839;28;20444;-79
2022/06/05 01:35:59;;;;;;;7.22;6.28;;;16.40;70.00;;;;;;4978338;28;20033;-79
2022/06/05 01:38:30;;;;;;;6.88;6.28;;;16.40;70.20;;;;;;4994067;28;20081;-79
2022/06/05 01:40:57;;;;;;;7.78;7.07;;;16.30;70.30;;;;;;4959733;28;20038;-79
2022/06/05 01:43:29;;;;;;;6.93;6.32;;;16.10;72.30;;;;;;4979121;28;20041;-79
2022/06/05 01:46:01;;;;;;;8.95;6.97;;;16.00;73.30;;;;;;4995403;28;20035;-79
2022/06/05 01:48:36;;;;;;;8.57;7.25;;;16.00;71.40;;;;;;4992695;28;20184;-79
2022/06/05 01:51:06;;;;;;;8.55;6.65;;;16.00;73.20;;;;;;4968724;28;20042;-79
2022/06/05 01:53:37;;;;;;;8.50;7.05;;;16.00;75.30;;;;;;4977242;28;20122;-79
2022/06/05 01:56:06;;;;;;;7.95;7.22;;;16.00;76.20;;;;;;4970435;28;20532;-79
2022/06/05 01:58:38;;;;;;;8.52;7.53;;;15.90;74.40;;;;;;4951213;28;20102;-79
2022/06/05 02:01:15;;;;;;;7.70;7.00;;;15.80;73.40;;;;;;4987262;28;20073;-79
2022/06/05 02:03:44;;;;;;;6.80;6.05;;;15.90;75.40;;;;;;4974964;28;20073;-79
2022/06/05 02:06:12;;;;;;;8.90;6.57;;;15.90;74.30;;;;;;4975981;28;20030;-79
2022/06/05 02:08:46;;;;;;;7.57;6.82;;;15.80;78.40;;;;;;4976751;28;20044;-79
2022/06/05 02:11:25;;;;;;;10.05;7.25;;;15.70;75.10;;;;;;4972848;28;20096;-79
2022/06/05 02:13:53;;;;;;;11.93;7.10;;;15.70;78.80;;;;;;4979392;28;20030;-79
2022/06/05 02:16:18;;;;;;;7.47;6.25;;;15.70;77.30;;;;;;4962431;28;20062;-79
2022/06/05 02:18:44;;;;;;;7.32;6.63;;;15.70;75.10;;;;;;4958233;28;20064;-79
2022/06/05 02:21:09;;;;;;;11.40;7.95;;;15.80;75.10;;;;;;4974831;28;20043;-78
2022/06/05 02:23:36;;;;;;;8.63;7.93;;;15.80;77.00;;;;;;4971034;28;20526;-79
2022/06/05 02:26:03;;;;;;;7.88;7.15;;;15.70;75.40;;;;;;4977628;28;20125;-79
2022/06/05 02:28:28;;;;;;;8.27;7.35;;;15.70;72.20;;;;;;4964128;28;20034;-79
2022/06/05 02:30:57;;;;;;;7.78;7.07;;;15.60;79.70;;;;;;4991236;28;20045;-79
2022/06/05 02:33:31;;;;;;;6.97;6.38;;;15.50;77.30;;;;;;4988711;28;20034;-79
2022/06/05 02:36:02;;;;;;;8.60;7.80;;;15.50;76.00;;;;;;4990520;28;20038;-79
2022/06/05 02:38:54;;;;;;;10.98;7.40;;;15.40;76.60;;;;;;4978959;28;20034;-78
2022/06/05 02:41:34;;;;;;;8.45;7.65;;;15.30;74.70;;;;;;4980584;28;20035;-78
2022/06/05 02:44:29;;;;;;;8.00;7.13;;;15.20;75.40;;;;;;4990402;28;20034;-78
2022/06/05 02:47:19;;;;;;;9.55;8.25;;;15.30;81.40;;;;;;4994486;28;20041;-78
2022/06/05 02:50:19;;;;;;;9.70;7.55;;;15.20;81.20;;;;;;5009659;28;20528;-79
2022/06/05 02:52:45;;;;;;;11.07;7.75;;;15.10;79.70;;;;;;4986894;28;20045;-78
2022/06/05 02:55:15;;;;;;;8.85;7.65;;;15.10;84.80;;;;;;4958667;28;20042;-78
2022/06/05 02:57:42;;;;;;;10.80;8.55;;;15.10;81.70;;;;;;4959579;28;20406;-78
2022/06/05 03:00:11;;;;;;;11.82;8.98;;;15.10;83.20;;;;;;4960092;28;20057;-78
2022/06/05 03:05:21;;;;;;;9.18;8.07;;;15.00;82.70;;;;;;4976887;28;20234;-78
2022/06/05 03:07:47;;;;;;;9.15;8.40;;;14.90;82.60;;;;;;4994066;28;20113;-78
2022/06/05 03:10:12;;;;;;;9.00;8.20;;;14.90;85.40;;;;;;4972773;28;20114;-78
2022/06/05 03:12:38;;;;;;;9.40;8.50;;;14.90;83.30;;;;;;4957698;28;20034;-78
2022/06/05 03:15:04;;;;;;;9.57;8.68;;;14.90;84.90;;;;;;4963615;28;20026;-78
2022/06/05 03:17:30;;;;;;;10.13;9.20;;;14.90;83.60;;;;;;4961879;28;20038;-78
2022/06/05 03:19:56;;;;;;;10.38;9.25;;;14.80;84.70;;;;;;4949939;28;20398;-78
2022/06/05 03:22:22;;;;;;;10.32;9.00;;;14.90;85.80;;;;;;4974134;28;20117;-78
2022/06/05 03:24:48;;;;;;;10.07;9.10;;;14.90;88.40;;;;;;4965977;28;20131;-78
2022/06/05 03:27:13;;;;;;;10.02;9.13;;;14.90;91.00;;;;;;4988835;28;20456;-78
2022/06/05 03:29:39;;;;;;;10.30;9.38;;;14.90;88.40;;;;;;4964501;28;20030;-78
2022/06/05 03:32:05;;;;;;;9.70;8.80;;;14.90;89.00;;;;;;4960733;28;20026;-78
2022/06/05 03:34:30;;;;;;;9.80;8.90;;;14.90;90.20;;;;;;4962181;28;20536;-77
2022/06/05 03:36:56;;;;;;;9.35;8.50;;;14.90;92.70;;;;;;4974566;28;20485;-78
2022/06/05 03:39:21;;;;;;;9.68;8.63;;;14.90;89.50;;;;;;4949121;28;20038;-78
2022/06/05 03:41:47;;;;;;;9.82;8.80;;;14.90;94.60;;;;;;4992228;28;20549;-78
2022/06/05 03:44:13;;;;;;;10.52;9.20;;;15.00;91.60;;;;;;4976358;28;20494;-78
2022/06/05 03:46:39;;;;;;;7.60;6.88;;;15.10;87.70;;;;;;4977313;28;20045;-77
2022/06/05 03:49:06;;;;;;;10.95;8.45;;;15.10;86.10;;;;;;4994390;28;20045;-78
2022/06/05 03:51:31;;;;;;;9.40;8.50;;;15.20;83.70;;;;;;4952789;28;20655;-78
2022/06/05 03:53:57;;;;;;;9.60;8.43;;;15.20;82.70;;;;;;4954890;28;20033;-77
2022/06/05 03:56:23;;;;;;;8.95;8.10;;;15.30;83.30;;;;;;4968121;28;20031;-77
2022/06/05 03:58:50;;;;;;;9.43;8.30;;;15.20;90.10;;;;;;4961154;28;20034;-78
2022/06/05 04:01:17;;;;;;;11.02;9.30;;;15.20;84.60;;;;;;4993984;28;20339;-79
2022/06/05 04:03:42;;;;;;;10.30;8.68;;;15.20;86.80;;;;;;4972558;28;20046;-79
2022/06/05 04:06:10;;;;;;;9.07;8.18;;;15.20;85.30;;;;;;4991533;28;20030;-79
2022/06/05 04:08:36;;;;;;;9.20;8.15;;;15.20;87.10;;;;;;4975244;28;20041;-79
2022/06/05 04:11:05;;;;;;;9.32;8.32;;;15.30;86.00;;;;;;4957514;28;20031;-79
2022/06/05 04:13:31;;;;;;;9.27;8.43;;;15.40;86.00;;;;;;4976897;28;20053;-79
2022/06/05 04:15:56;;;;;;;8.75;7.85;;;15.40;87.20;;;;;;4971311;28;20034;-78
2022/06/05 04:18:22;;;;;;;9.95;8.20;;;15.50;86.40;;;;;;4958345;28;20796;-78
2022/06/05 04:20:47;;;;;;;8.82;7.63;;;15.50;86.10;;;;;;4977375;28;20033;-78
2022/06/05 04:23:13;;;;;;;8.95;7.50;;;15.60;85.90;;;;;;4991527;28;20054;-78
2022/06/05 04:25:42;;;;;;;8.52;7.72;;;15.70;85.80;;;;;;4956284;28;20041;-78
2022/06/05 04:28:08;;;;;;;8.98;7.97;;;15.70;83.30;;;;;;4973783;28;20046;-78
2022/06/05 04:30:39;;;;;;;8.73;7.60;;;15.80;83.20;;;;;;4973247;28;20034;-77
2022/06/05 04:33:05;;;;;;;8.48;7.68;;;15.70;83.30;;;;;;4951487;28;20398;-77
2022/06/05 04:35:31;;;;;;;8.40;7.60;;;15.70;83.90;;;;;;4995168;28;20030;-78
2022/06/05 04:37:57;;;;;;;7.80;7.00;;;15.70;84.70;;;;;;4983805;28;20045;-77
2022/06/05 04:40:22;;;;;;;8.90;8.10;;;15.70;84.20;;;;;;4973407;28;20034;-77
2022/06/05 04:42:48;;;;;;;8.52;7.63;;;15.80;84.50;;;;;;4978114;28;20034;-78
2022/06/05 04:45:13;;;;;;;9.23;8.32;;;15.80;86.40;;;;;;4994251;28;20022;-77
2022/06/05 04:47:40;;;;;;;8.48;7.30;;;15.80;86.90;;;;;;4997798;28;20041;-78
2022/06/05 04:50:06;;;;;;;8.15;7.13;;;15.90;83.10;;;;;;4973956;28;20045;-78
2022/06/05 04:52:32;;;;;;;8.50;7.20;;;15.90;83.10;;;;;;4976459;28;20034;-78
2022/06/05 04:54:58;;;;;;;8.23;7.53;;;16.00;83.10;;;;;;4958058;28;20022;-77
2022/06/05 04:57:23;;;;;;;7.05;6.35;;;16.00;82.80;;;;;;4968782;28;20019;-78
2022/06/05 04:59:49;;;;;;;8.27;7.47;;;16.10;81.80;;;;;;4958636;28;20038;-78
2022/06/05 05:02:17;;;;;;;7.53;5.97;;;16.10;81.90;;;;;;4996192;28;20049;-77
2022/06/05 05:04:42;;;;;;;7.43;6.75;;;16.10;81.20;;;;;;4973983;28;20044;-78
2022/06/05 05:07:08;;;;;;;7.78;7.13;;;16.20;81.00;;;;;;4998269;28;20030;-78
2022/06/05 05:09:33;;;;;;;10.55;7.60;;;16.10;81.10;;;;;;4950733;28;20042;-78
2022/06/05 05:11:59;;;;;;;7.20;6.60;;;16.20;81.00;;;;;;4955994;28;20045;-78
2022/06/05 05:14:24;;;;;;;8.80;7.32;;;16.30;79.90;;;;;;4962216;28;20058;-78
2022/06/05 05:16:50;;;;;;;7.30;6.13;;;16.40;80.10;;;;;;4960402;28;20510;-78
2022/06/05 05:19:16;;;;;;;5.28;4.78;;;16.40;79.60;;;;;;4992745;28;20444;-78
2022/06/05 05:21:41;;;;;;;8.18;5.85;;;16.40;79.00;;;;;;4999395;28;20034;-78
2022/06/05 05:24:08;;;;;;;7.38;6.68;;;16.50;78.50;;;;;;4951504;28;20125;-78
2022/06/05 05:26:34;;;;;;;7.28;5.80;;;16.50;78.30;;;;;;4955098;28;20042;-78
2022/06/05 05:29:00;;;;;;;9.55;6.20;;;16.60;78.00;;;;;;4963257;28;20030;-78
2022/06/05 05:31:27;;;;;;;8.90;7.45;;;16.60;77.50;;;;;;4976614;28;20125;-78
2022/06/05 05:33:53;;;;;;;6.78;6.15;;;16.70;77.60;;;;;;4978115;28;20436;-78
2022/06/05 05:36:20;;;;;;;8.20;6.85;;;16.70;77.90;;;;;;4963051;28;20030;-79
2022/06/05 05:44:14;;;;;;;9.18;6.97;;;16.90;79.50;;;;;;4984800;28;20512;-78
2022/06/05 05:46:41;;;;;;;10.10;6.72;;;17.00;80.40;;;;;;4974484;28;20122;-78
2022/06/05 05:49:07;;;;;;;7.57;6.80;;;17.00;80.40;;;;;;4963576;28;20030;-78
2022/06/05 05:51:33;;;;;;;7.78;6.93;;;17.10;80.00;;;;;;4963522;28;20049;-78
2022/06/05 05:53:59;;;;;;;6.75;6.15;;;17.20;81.20;;;;;;4981546;28;20429;-79
2022/06/05 05:56:24;;;;;;;6.03;5.53;;;17.20;81.40;;;;;;4958343;28;20038;-78
2022/06/05 05:58:50;;;;;;;8.25;6.45;;;17.30;79.80;;;;;;4993677;28;20038;-79
2022/06/05 06:01:15;;;;;;;7.38;6.68;;;17.40;80.70;;;;;;4961556;28;20050;-79
2022/06/05 06:03:41;;;;;;;6.72;5.80;;;17.50;82.50;;;;;;4981446;28;20033;-78
2022/06/05 06:06:07;;;;;;;7.47;6.75;;;17.60;81.60;;;;;;4993746;28;20049;-79
2022/06/05 06:08:33;;;;;;;7.35;6.72;;;17.70;81.90;;;;;;4976603;28;20034;-79
2022/06/05 06:10:59;;;;;;;7.88;6.82;;;17.80;82.30;;;;;;4976733;28;20045;-78
2022/06/05 06:13:24;;;;;;;7.45;6.82;;;18.00;84.20;;;;;;4973945;28;20533;-79
2022/06/05 06:15:50;;;;;;;9.38;7.18;;;18.10;82.50;;;;;;4960162;28;21413;-79
2022/06/05 06:18:16;;;;;;;7.75;6.80;;;18.20;84.90;;;;;;4979153;28;20121;-79
2022/06/05 06:20:42;;;;;;;6.90;6.20;;;18.30;83.50;;;;;;4964630;28;20048;-80
2022/06/05 06:23:07;;;;;;;8.48;6.68;;;18.40;82.30;;;;;;4960667;28;20045;-80
2022/06/05 06:25:33;;;;;;;6.93;6.32;;;18.60;83.80;;;;;;4967519;28;20418;-80
2022/06/05 06:27:58;;;;;;;8.10;7.30;;;18.70;83.70;;;;;;4996884;28;20104;-80
2022/06/05 06:30:24;;;;;;;7.85;6.40;;;18.90;84.00;;;;;;4954145;28;20061;-80
2022/06/05 06:32:49;;;;;;;8.38;5.53;;;18.90;83.40;;;;;;4959585;28;20046;-80
2022/06/05 06:35:15;;;;;;;9.05;7.63;;;19.10;82.90;;;;;;4973129;28;20027;-80
2022/06/05 06:37:42;;;;;;;8.10;5.90;;;19.20;84.80;;;;;;4960057;28;20053;-80
2022/06/05 06:40:08;;;;;;;6.63;6.13;;;19.40;84.60;;;;;;4976977;28;20030;-80
2022/06/05 06:42:34;;;;;;;6.65;6.05;;;19.50;83.70;;;;;;4960779;28;20031;-80
2022/06/05 06:44:59;;;;;;;7.05;6.35;;;19.60;84.40;;;;;;4976494;28;20038;-81
2022/06/05 06:47:25;;;;;;;7.00;6.40;;;19.70;83.50;;;;;;4993435;28;20038;-80
2022/06/05 06:49:50;;;;;;;8.55;6.75;;;19.80;84.40;;;;;;4958936;28;20046;-80
2022/06/05 06:52:16;;;;;;;6.28;5.78;;;19.90;84.40;;;;;;4989944;28;20053;-80
2022/06/05 06:54:41;;;;;;;8.95;5.78;;;20.00;84.00;;;;;;4977905;28;20030;-79
2022/06/05 06:57:08;;;;;;;8.82;6.20;;;20.10;83.70;;;;;;4959775;28;20426;-80
2022/06/05 06:59:33;;;;;;;7.55;6.43;;;20.20;82.70;;;;;;4958416;28;20624;-80
2022/06/05 07:01:59;;;;;;;9.73;6.43;;;20.20;83.50;;;;;;4993809;28;20071;-80
2022/06/05 07:04:25;;;;;;;8.10;6.50;;;20.40;83.60;;;;;;4969732;28;20026;-80
2022/06/05 07:06:50;;;;;;;6.85;6.15;;;20.50;83.60;;;;;;4979236;28;20045;-80
2022/06/05 07:09:17;;;;;;;7.10;6.40;;;20.60;83.30;;;;;;4982039;28;20068;-80
2022/06/05 07:11:42;;;;;;;8.13;6.18;;;20.60;82.90;;;;;;4968679;28;20110;-81
2022/06/05 07:14:09;;;;;;;6.97;6.28;;;20.80;82.70;;;;;;4991603;28;20113;-80
2022/06/05 07:16:34;;;;;;;7.72;6.40;;;20.90;82.60;;;;;;4975026;28;20553;-80
2022/06/05 07:19:00;;;;;;;6.45;5.72;;;21.00;82.30;;;;;;4960589;28;20122;-80
2022/06/05 07:21:26;;;;;;;7.53;6.15;;;21.00;82.10;;;;;;4976103;28;20117;-81
2022/06/05 07:23:51;;;;;;;8.55;6.28;;;21.10;81.70;;;;;;4975357;28;20115;-81
2022/06/05 07:26:19;;;;;;;9.02;5.95;;;21.30;81.80;;;;;;4963276;28;20046;-80
2022/06/05 07:28:45;;;;;;;6.95;6.25;;;21.40;81.40;;;;;;4975548;28;20057;-80
2022/06/05 07:31:11;;;;;;;5.97;5.47;;;21.40;80.90;;;;;;4958733;28;20474;-80
2022/06/05 07:33:37;;;;;;;8.18;6.03;;;21.50;80.80;;;;;;4957763;28;20030;-80
2022/06/05 07:36:05;;;;;;;6.25;5.47;;;21.50;80.60;;;;;;4976116;28;20050;-80
2022/06/05 07:38:32;;;;;;;6.50;5.90;;;21.60;80.10;;;;;;4967260;28;20752;-80
2022/06/05 07:40:58;;;;;;;6.95;6.35;;;21.70;80.70;;;;;;4989531;28;20042;-80
2022/06/05 07:43:24;;;;;;;7.20;6.57;;;21.80;80.10;;;;;;4958620;28;20037;-80
2022/06/05 07:45:49;;;;;;;6.85;5.78;;;21.90;79.90;;;;;;4961723;28;20053;-80
2022/06/05 07:48:17;;;;;;;6.68;5.95;;;21.90;79.70;;;;;;4977071;28;20030;-81
2022/06/05 07:56:23;;;;;;;8.07;6.43;;;22.30;79.10;;;;;;4982894;28;20037;-80
2022/06/05 07:58:49;;;;;;;7.35;6.03;;;22.50;79.70;;;;;;4959376;28;20025;-81
2022/06/05 08:01:14;;;;;;;6.47;5.88;;;22.70;79.20;;;;;;4955268;28;20037;-81
2022/06/05 08:03:40;;;;;;;7.38;5.85;;;22.90;79.10;;;;;;4993923;28;20121;-81
2022/06/05 08:06:07;;;;;;;7.55;5.82;;;23.00;78.80;;;;;;4978145;28;20034;-81
2022/06/05 08:08:33;;;;;;;6.53;5.72;;;23.30;77.80;;;;;;4979220;28;20050;-81
2022/06/05 08:11:04;;;;;;;7.20;6.53;;;23.50;77.80;;;;;;4993814;28;20034;-81
2022/06/05 08:13:30;;;;;;;6.97;6.38;;;24.00;78.00;;;;;;4958601;28;20030;-81
2022/06/05 08:15:56;;;;;;;6.18;5.65;;;24.30;76.50;;;;;;4977494;28;20038;-83
2022/06/05 08:18:21;;;;;;;10.68;6.88;;;24.40;76.50;;;;;;4958254;28;20403;-80
2022/06/05 08:20:48;;;;;;;8.00;6.57;;;24.90;76.30;;;;;;4946465;28;20041;-81
2022/06/05 08:23:13;;;;;;;6.88;6.22;;;25.20;75.70;;;;;;4973469;28;20486;-81
2022/06/05 08:25:39;;;;;;;6.85;5.75;;;25.50;73.70;;;;;;4994392;28;20104;-81
2022/06/05 08:28:04;;;;;;;9.25;5.13;;;25.80;73.80;;;;;;4959289;28;20030;-81
2022/06/05 08:30:31;;;;;;;7.25;4.50;;;26.00;72.90;;;;;;4959005;28;20093;-82
2022/06/05 08:32:56;;;;;;;6.18;5.65;;;26.30;73.50;;;;;;4957332;28;20518;-81
2022/06/05 08:35:22;;;;;;;6.93;6.28;;;26.60;72.20;;;;;;4957853;28;20026;-82
2022/06/05 08:43:36;;;;;;;5.80;5.25;;;27.50;69.30;;;;;;4975024;28;20033;-83
2022/06/05 08:46:09;;;;;;;6.57;5.57;;;27.90;69.40;;;;;;4983114;28;20513;-82
2022/06/05 08:48:47;;;;;;;5.68;5.18;;;28.10;69.90;;;;;;4975365;28;20394;-83
2022/06/05 08:51:42;;;;;;;5.95;5.13;;;28.50;68.50;;;;;;4958579;28;20039;-83
2022/06/05 08:54:33;;;;;;;7.20;6.00;;;28.80;67.20;;;;;;4981568;28;20038;-83
2022/06/05 08:57:15;;;;;;;5.28;4.72;;;29.00;66.60;;;;;;4996709;28;20490;-83
2022/06/05 08:59:48;;;;;;;7.25;5.65;;;29.00;67.50;;;;;;4967598;28;20023;-84
2022/06/05 09:02:26;;;;;;;7.10;5.57;;;29.20;66.70;;;;;;4977942;28;20510;-84
2022/06/05 09:05:05;;;;;;;6.80;5.80;;;29.40;65.80;;;;;;4964358;28;20101;-84
2022/06/05 09:07:49;;;;;;;6.90;5.45;;;29.50;64.90;;;;;;4961358;28;20030;-85
2022/06/05 09:10:27;;;;;;;6.60;5.95;;;29.70;64.40;;;;;;4971741;28;20026;-85
2022/06/05 09:13:13;;;;;;;6.22;4.88;;;29.80;64.10;;;;;;4993178;28;20030;-85
2022/06/05 09:15:51;;;;;;;4.70;4.40;;;29.90;64.40;;;;;;4973622;28;20053;-84
2022/06/05 09:18:18;;;;;;;5.63;4.45;;;30.00;63.60;;;;;;4981284;28;20038;-86
2022/06/05 09:20:57;;;;;;;4.95;4.55;;;30.00;63.80;;;;;;4980339;28;20117;-86
2022/06/05 09:23:40;;;;;;;5.35;4.95;;;30.10;63.50;;;;;;4979205;28;20026;-86
2022/06/05 09:26:13;;;;;;;6.22;4.63;;;30.20;63.00;;;;;;4972556;28;20657;-86
2022/06/05 09:28:53;;;;;;;4.82;4.43;;;30.20;63.00;;;;;;4963171;28;20034;-85
2022/06/05 09:31:35;;;;;;;14.88;4.63;;;30.10;63.30;;;;;;4996435;28;20014;-87
2022/06/05 09:34:03;;;;;;;5.60;5.18;;;30.20;62.80;;;;;;4978061;28;20037;-87
2022/06/05 09:36:28;;;;;;;6.10;5.53;;;30.20;62.40;;;;;;4954178;28;20034;-87
2022/06/05 09:39:32;;;;;;;5.85;5.38;;;30.30;61.90;;;;;;4958176;28;20516;-86
2022/06/05 09:42:11;;;;;;;5.63;5.20;;;30.20;62.20;;;;;;4989326;28;20386;-87
2022/06/05 09:44:50;;;;;;;5.43;4.90;;;30.10;62.30;;;;;;4987359;28;20061;-86
2022/06/05 09:47:25;;;;;;;4.88;4.43;;;29.90;62.50;;;;;;4990767;28;20043;-85
2022/06/05 09:50:00;;;;;;;5.78;5.20;;;29.80;62.50;;;;;;4953913;28;20756;-87
2022/06/05 09:52:28;;;;;;;5.53;5.13;;;29.70;62.60;;;;;;4976906;28;20065;-87
2022/06/05 09:55:00;;;;;;;5.00;4.68;;;29.50;62.60;;;;;;4979301;28;20069;-86
2022/06/05 10:00:55;;;;;;;4.05;3.53;;;29.00;62.10;;;;;;4995327;28;20054;-87
2022/06/05 10:03:25;;;;;;;5.35;4.80;;;28.20;63.20;;;;;;4979105;28;20031;-86
2022/06/05 10:06:13;;;;;;;5.50;5.10;;;27.30;65.10;;;;;;4962998;28;20389;-86
2022/06/05 10:08:46;;;;;;;5.50;5.10;;;27.40;65.60;;;;;;4973911;28;20023;-86
2022/06/05 10:11:26;;;;;;;4.72;4.32;;;27.40;66.00;;;;;;4976586;28;20450;-87
2022/06/05 10:14:05;;;;;;;6.00;5.40;;;26.70;66.80;;;;;;4975481;28;20038;-85
2022/06/05 10:16:46;;;;;;;5.65;4.60;;;26.30;68.90;;;;;;4975109;28;20030;-85
2022/06/05 10:19:12;;;;;;;5.40;4.90;;;26.20;70.40;;;;;;4961744;28;20552;-86
2022/06/05 10:21:47;;;;;;;6.90;5.70;;;25.40;73.50;;;;;;4992188;28;20093;-84
2022/06/05 10:24:25;;;;;;;7.10;6.38;;;25.40;74.80;;;;;;4951392;28;20031;-83
2022/06/05 10:26:51;;;;;;;6.63;6.13;;;25.10;77.60;;;;;;4989013;28;20030;-83
2022/06/05 10:29:28;;;;;;;6.88;6.25;;;25.10;75.00;;;;;;4957721;28;20025;-83
2022/06/05 10:31:58;;;;;;;6.22;5.75;;;25.20;76.30;;;;;;4972712;28;20050;-83
2022/06/05 10:34:36;;;;;;;6.80;6.30;;;25.00;76.80;;;;;;4973493;28;20070;-83
2022/06/05 10:37:31;;;;;;;7.97;5.68;;;25.20;79.30;;;;;;4980090;28;20531;-83
2022/06/05 10:40:03;;;;;;;7.03;6.43;;;24.80;78.50;;;;;;4954404;28;20104;-83
2022/06/05 10:42:36;;;;;;;8.25;7.50;;;24.70;79.10;;;;;;4955447;28;20100;-82
2022/06/05 10:45:14;;;;;;;8.77;7.88;;;24.20;81.10;;;;;;4970895;28;20031;-82
2022/06/05 10:47:58;;;;;;;6.43;5.80;;;24.50;79.80;;;;;;4988010;28;20521;-83
2022/06/05 10:50:30;;;;;;;6.00;5.47;;;24.70;79.90;;;;;;4970395;28;20034;-83
2022/06/05 10:53:05;;;;;;;5.95;4.93;;;24.70;79.60;;;;;;4976695;28;20077;-83
2022/06/05 10:55:35;;;;;;;6.00;5.50;;;24.60;79.40;;;;;;4992167;28;20138;-84
2022/06/05 10:58:04;;;;;;;7.78;6.70;;;24.50;79.70;;;;;;4987901;28;20034;-83
2022/06/05 11:00:50;;;;;;;6.70;5.28;;;24.30;80.70;;;;;;4992251;28;20099;-82
2022/06/05 11:03:27;;;;;;;;;;;24.20;81.40;;;;;;4969547;28;20500;-83
2022/06/05 11:06:27;;;;;;;6.55;5.93;;;24.20;80.90;;;;;;4988504;28;20310;-83
2022/06/05 11:09:03;;;;;;;8.02;6.70;;;24.00;80.90;;;;;;4990645;28;20505;-83
2022/06/05 11:15:03;;;;;;;6.93;6.20;;;23.90;81.90;;;;;;4976476;28;20076;-83
2022/06/05 11:17:41;;;;;;;8.63;7.68;;;23.80;82.50;;;;;;4988996;28;20031;-83
2022/06/05 11:20:08;;;;;;;6.85;6.20;;;23.70;85.10;;;;;;4986224;28;20026;-83
2022/06/05 11:22:36;;;;;;;6.40;5.90;;;23.60;84.40;;;;;;4971941;28;20042;-82
2022/06/05 11:25:36;;;;;;;6.82;6.22;;;23.40;84.90;;;;;;4990606;28;20038;-82
2022/06/05 11:28:23;;;;;;;8.63;7.93;;;23.30;85.10;;;;;;4950649;28;20043;-83
2022/06/05 11:31:00;;;;;;;8.07;7.47;;;23.30;87.30;;;;;;4971701;28;20037;-83
2022/06/05 11:33:27;;;;;;;7.90;7.20;;;23.20;86.80;;;;;;4983505;28;20363;-83
2022/06/05 11:36:02;;;;;;;8.98;8.18;;;23.20;88.10;;;;;;4958911;28;20093;-83
2022/06/05 11:38:30;;;;;;;8.63;7.80;;;23.10;90.20;;;;;;4974432;28;20026;-84
2022/06/05 11:41:19;;;;;;;7.95;7.35;;;23.20;90.10;;;;;;4995205;28;20097;-84
2022/06/05 11:43:44;;;;;;;8.65;7.95;;;23.20;90.50;;;;;;4986765;28;20545;-83
2022/06/05 11:46:26;;;;;;;10.77;9.80;;;23.30;91.10;;;;;;4975730;28;20195;-84
2022/06/05 11:48:54;;;;;;;10.38;9.32;;;23.40;92.20;;;;;;4972496;28;20140;-83
2022/06/05 11:51:30;;;;;;;12.02;10.90;;;23.50;93.40;;;;;;4990024;28;20034;-84
2022/06/05 11:54:19;;;;;;;9.55;8.77;;;23.50;94.90;;;;;;4977134;28;20042;-84
2022/06/05 11:57:05;;;;;;;9.27;8.30;;;23.50;95.30;;;;;;4994120;28;20878;-83
2022/06/05 11:59:46;;;;;;;7.30;6.63;;;23.40;94.40;;;;;;4990115;28;20030;-83
2022/06/05 12:02:12;;;;;;;8.27;7.57;;;23.40;93.80;;;;;;4990024;28;20061;-83
2022/06/05 12:04:47;;;;;;;6.43;5.72;;;23.30;94.50;;;;;;4991989;28;20522;-83
2022/06/05 12:07:13;;;;;;;8.07;7.40;;;23.20;94.30;;;;;;4983587;28;20487;-83
2022/06/05 12:09:50;;;;;;;8.50;7.70;;;23.10;94.40;;;;;;4962318;28;20115;-83
2022/06/05 12:12:36;;;;;;;8.20;7.50;;;23.10;94.50;;;;;;4988862;28;20034;-83
2022/06/05 12:15:13;;;;;;;8.15;7.45;;;23.30;94.60;;;;;;4977775;28;20053;-83
2022/06/05 12:17:42;;;;;;;7.45;6.75;;;23.40;96.80;;;;;;4977385;28;20053;-83
2022/06/05 12:20:16;;;;;;;8.85;8.02;;;23.60;97.20;;;;;;4952207;28;20030;-82
2022/06/05 12:22:46;;;;;;;8.10;6.60;;;23.90;96.60;;;;;;4972682;28;20038;-83
2022/06/05 12:25:53;;;;;;;7.45;6.85;;;24.30;98.40;;;;;;4957783;28;20129;-83
2022/06/05 12:28:43;;;;;;;7.90;7.22;;;24.70;99.10;;;;;;4928883;29;20038;-83
2022/06/05 12:31:15;;;;;;;8.45;7.82;;;25.00;96.60;;;;;;4976968;28;20395;-83
2022/06/05 12:33:51;;;;;;;8.02;7.38;;;25.10;97.50;;;;;;4965144;28;20036;-84
2022/06/05 12:36:48;;;;;;;7.82;7.03;;;25.60;98.60;;;;;;4844958;28;10000452;-83
2022/06/05 12:39:26;;;;;;;8.27;7.68;;;25.90;98.40;;;;;;4606523;28;10000700;-83
2022/06/05 12:42:01;;;;;;;8.30;7.70;;;26.10;97.90;;;;;;4952356;28;20044;-84
2022/06/05 12:44:28;;;;;;;8.23;7.53;;;26.30;98.70;;;;;;4989343;28;20117;-83
2022/06/05 12:47:42;;;;;;;7.40;6.80;;;26.50;97.70;;;;;;4958533;28;20407;-84
2022/06/05 12:50:21;;;;;;;8.50;7.70;;;26.70;98.40;;;;;;4969169;28;20042;-84
2022/06/05 12:53:05;;;;;;;11.43;8.57;;;26.80;97.90;;;;;;4956398;28;20030;-82
2022/06/05 12:55:37;;;;;;;8.10;7.40;;;26.80;96.70;;;;;;4983329;28;20116;-84
2022/06/05 12:58:35;;;;;;;8.00;7.30;;;26.70;96.90;;;;;;4967506;28;20043;-83
2022/06/05 13:01:06;;;;;;;7.30;6.60;;;26.70;96.40;;;;;;4990879;28;20034;-85
2022/06/05 13:03:53;;;;;;;7.18;6.65;;;26.70;95.90;;;;;;4975675;28;20037;-84
2022/06/05 13:06:42;;;;;;;8.13;7.35;;;26.80;95.80;;;;;;4991037;28;20561;-84
2022/06/05 13:09:14;;;;;;;7.18;6.57;;;26.90;96.30;;;;;;4981711;28;20051;-84
2022/06/05 13:11:48;;;;;;;6.78;6.18;;;27.00;95.20;;;;;;4970574;28;20118;-84
2022/06/05 13:14:33;;;;;;;7.13;6.50;;;27.20;94.40;;;;;;4986490;28;20031;-84
2022/06/05 13:17:36;;;;;;;7.82;7.13;;;27.40;95.10;;;;;;4986477;28;20031;-84
2022/06/05 13:20:11;;;;;;;6.82;6.10;;;27.70;95.00;;;;;;4983194;28;20070;-84
2022/06/05 13:22:58;;;;;;;8.32;6.53;;;28.00;94.20;;;;;;4978610;28;20621;-84
2022/06/05 13:25:32;;;;;;;5.65;5.22;;;28.10;93.90;;;;;;4961337;28;20338;-84
2022/06/05 13:28:07;;;;;;;7.40;6.45;;;28.10;93.00;;;;;;4953834;28;20502;-84
2022/06/05 13:30:41;;;;;;;;;;;28.10;93.00;;;;;;4646541;28;10000508;-84
2022/06/05 13:33:31;;;;;;;6.80;6.25;;;28.20;92.90;;;;;;4969164;28;19964;-84
2022/06/05 13:36:01;;;;;;;6.20;5.63;;;28.20;92.50;;;;;;4990600;28;20062;-84